Current | Forecast
Updated: 11:30 PM CEST on April 23, 2018
Observed at Salamanca, Spain
Temperature 16°C
Humidity 77%
Dew Point 12°C
Wind ENE at 9 km/h
Pressure 1018 hPa (Steady)
Conditions Clear
Visibility -
UV N/A
Clouds
Yesterday's Maximum 20°C
Yesterday's Minimum 12°C approx.
Yesterday's Heating Degree Days 4 approx.
Sunrise7:30 AM CEST
Sunset9:09 PM CEST
Moon Rise3:16 PM CEST
Moon Set4:35 AM CEST
Moon PhaseMoon Phase
Waxing Gibbous
Raw METARMETAR LESA 232130Z 07005KT CAVOK 16/12 Q1018


Monday
. High: 62° F.
Tuesday
. High: 71° F.
Wednesday
. High: 60° F.
Thursday
. High: 64° F.
Friday
. High: 73° F.
Saturday
. High: 66° F.
Sunday
. High: 71° F.
Monday
. High: 77° F.

Units: English | Metric

Find the Weather for any City, State or Zipcode, or Country:

U.S. State List | Severe Weather | Tropical Storms | Ski Conditions
United States | Canada | Central America | South America | Asia | Europe | Australia | Africa | Islands

Weather Underground

© Copyright 2018
The Weather Company, LLC